sensor_id;sensor_type;location;lat;lon;timestamp;P1;durP1;ratioP1;P2;durP2;ratioP2
73104;SDS011;61296;50.526;30.792;2023-04-25T00:14:17;9.95;;;6.30;;
73104;SDS011;61296;50.526;30.792;2023-04-25T00:29:37;11.25;;;6.80;;
73104;SDS011;61296;50.526;30.792;2023-04-25T00:44:56;10.52;;;6.95;;
73104;SDS011;61296;50.526;30.792;2023-04-25T01:00:17;12.63;;;7.13;;
73104;SDS011;61296;50.526;30.792;2023-04-25T01:15:37;35.53;;;16.50;;
73104;SDS011;61296;50.526;30.792;2023-04-25T01:30:58;12.43;;;8.90;;
73104;SDS011;61296;50.526;30.792;2023-04-25T01:46:18;14.43;;;8.18;;
73104;SDS011;61296;50.526;30.792;2023-04-25T02:01:38;15.23;;;9.27;;
73104;SDS011;61296;50.526;30.792;2023-04-25T02:17:09;13.75;;;8.65;;
73104;SDS011;61296;50.526;30.792;2023-04-25T02:32:29;13.15;;;8.65;;
73104;SDS011;61296;50.526;30.792;2023-04-25T02:47:48;17.10;;;8.80;;
73104;SDS011;61296;50.526;30.792;2023-04-25T03:03:17;12.38;;;8.93;;
73104;SDS011;61296;50.526;30.792;2023-04-25T03:18:40;15.75;;;9.23;;
73104;SDS011;61296;50.526;30.792;2023-04-25T03:34:00;16.67;;;9.57;;
73104;SDS011;61296;50.526;30.792;2023-04-25T03:49:19;14.63;;;8.65;;
73104;SDS011;61296;50.526;30.792;2023-04-25T04:04:54;14.77;;;7.90;;
73104;SDS011;61296;50.526;30.792;2023-04-25T04:20:15;14.55;;;8.07;;
73104;SDS011;61296;50.526;30.792;2023-04-25T04:35:35;11.63;;;8.55;;
73104;SDS011;61296;50.526;30.792;2023-04-25T04:50:54;11.27;;;7.63;;
73104;SDS011;61296;50.526;30.792;2023-04-25T05:06:36;14.95;;;8.55;;
73104;SDS011;61296;50.526;30.792;2023-04-25T05:22:29;12.68;;;7.95;;
73104;SDS011;61296;50.526;30.792;2023-04-25T05:38:07;11.40;;;6.30;;
73104;SDS011;61296;50.526;30.792;2023-04-25T05:53:45;16.55;;;7.25;;
73104;SDS011;61296;50.526;30.792;2023-04-25T06:09:17;16.30;;;6.45;;
73104;SDS011;61296;50.526;30.792;2023-04-25T06:24:39;21.85;;;8.07;;
73104;SDS011;61296;50.526;30.792;2023-04-25T06:39:59;14.13;;;7.80;;
73104;SDS011;61296;50.526;30.792;2023-04-25T06:55:19;17.33;;;10.68;;
73104;SDS011;61296;50.526;30.792;2023-04-25T07:11:04;9.23;;;5.60;;
73104;SDS011;61296;50.526;30.792;2023-04-25T07:26:24;6.03;;;4.45;;
73104;SDS011;61296;50.526;30.792;2023-04-25T07:58:02;7.97;;;4.78;;
73104;SDS011;61296;50.526;30.792;2023-04-25T08:13:35;3.72;;;3.10;;
73104;SDS011;61296;50.526;30.792;2023-04-25T08:28:55;9.30;;;6.10;;
73104;SDS011;61296;50.526;30.792;2023-04-25T08:44:15;7.18;;;3.05;;
73104;SDS011;61296;50.526;30.792;2023-04-25T08:59:39;10.15;;;3.92;;
73104;SDS011;61296;50.526;30.792;2023-04-25T09:46:50;6.72;;;4.05;;
73104;SDS011;61296;50.526;30.792;2023-04-25T10:02:16;5.60;;;3.05;;
73104;SDS011;61296;50.526;30.792;2023-04-25T10:17:49;7.95;;;4.25;;
73104;SDS011;61296;50.526;30.792;2023-04-25T10:33:21;14.68;;;3.55;;
73104;SDS011;61296;50.526;30.792;2023-04-25T10:49:00;3.38;;;2.80;;
73104;SDS011;61296;50.526;30.792;2023-04-25T11:04:24;5.65;;;3.17;;
73104;SDS011;61296;50.526;30.792;2023-04-25T11:19:49;4.15;;;3.10;;
73104;SDS011;61296;50.526;30.792;2023-04-25T11:35:11;6.50;;;2.87;;
73104;SDS011;61296;50.526;30.792;2023-04-25T11:50:31;4.90;;;2.83;;
73104;SDS011;61296;50.526;30.792;2023-04-25T12:05:51;4.35;;;2.75;;
73104;SDS011;61296;50.526;30.792;2023-04-25T12:21:22;4.28;;;2.78;;
73104;SDS011;61296;50.526;30.792;2023-04-25T12:36:43;5.78;;;2.90;;
73104;SDS011;61296;50.526;30.792;2023-04-25T12:52:03;7.25;;;3.45;;
73104;SDS011;61296;50.526;30.792;2023-04-25T13:07:22;3.75;;;2.58;;
73104;SDS011;61296;50.526;30.792;2023-04-25T13:56:04;3.20;;;2.90;;
73104;SDS011;61296;50.526;30.792;2023-04-25T14:11:27;6.28;;;3.33;;
73104;SDS011;61296;50.526;30.792;2023-04-25T14:26:49;5.18;;;2.65;;
73104;SDS011;61296;50.526;30.792;2023-04-25T14:42:13;7.82;;;2.50;;
73104;SDS011;61296;50.526;30.792;2023-04-25T14:57:33;5.95;;;2.60;;
73104;SDS011;61296;50.526;30.792;2023-04-25T15:12:53;5.68;;;3.00;;
73104;SDS011;61296;50.526;30.792;2023-04-25T15:28:15;9.38;;;3.03;;
73104;SDS011;61296;50.526;30.792;2023-04-25T15:43:34;3.88;;;2.75;;
73104;SDS011;61296;50.526;30.792;2023-04-25T15:58:56;4.25;;;2.70;;
73104;SDS011;61296;50.526;30.792;2023-04-25T16:14:15;17.52;;;3.70;;
73104;SDS011;61296;50.526;30.792;2023-04-25T16:29:35;7.30;;;3.08;;
73104;SDS011;61296;50.526;30.792;2023-04-25T16:44:54;13.25;;;4.30;;
73104;SDS011;61296;50.526;30.792;2023-04-25T17:00:14;14.27;;;4.82;;
73104;SDS011;61296;50.526;30.792;2023-04-25T17:15:37;19.10;;;5.75;;
73104;SDS011;61296;50.526;30.792;2023-04-25T17:30:57;37.92;;;5.80;;
73104;SDS011;61296;50.526;30.792;2023-04-25T17:46:16;13.63;;;4.75;;
73104;SDS011;61296;50.526;30.792;2023-04-25T18:01:36;4.82;;;3.30;;
73104;SDS011;61296;50.526;30.792;2023-04-25T18:16:58;9.10;;;3.50;;
73104;SDS011;61296;50.526;30.792;2023-04-25T18:32:26;8.13;;;4.53;;
73104;SDS011;61296;50.526;30.792;2023-04-25T18:47:52;8.93;;;5.22;;
73104;SDS011;61296;50.526;30.792;2023-04-25T19:03:12;5.47;;;4.10;;
73104;SDS011;61296;50.526;30.792;2023-04-25T19:18:32;10.52;;;5.75;;
73104;SDS011;61296;50.526;30.792;2023-04-25T19:33:56;9.40;;;5.68;;
73104;SDS011;61296;50.526;30.792;2023-04-25T19:49:22;12.93;;;6.28;;
73104;SDS011;61296;50.526;30.792;2023-04-25T20:04:41;9.18;;;5.63;;
73104;SDS011;61296;50.526;30.792;2023-04-25T20:20:01;10.35;;;6.70;;
73104;SDS011;61296;50.526;30.792;2023-04-25T20:35:31;14.50;;;7.18;;
73104;SDS011;61296;50.526;30.792;2023-04-25T20:50:51;11.68;;;6.20;;
73104;SDS011;61296;50.526;30.792;2023-04-25T21:06:10;10.63;;;6.43;;
73104;SDS011;61296;50.526;30.792;2023-04-25T21:21:30;15.23;;;7.97;;
73104;SDS011;61296;50.526;30.792;2023-04-25T21:36:50;16.70;;;8.27;;
73104;SDS011;61296;50.526;30.792;2023-04-25T21:52:09;15.68;;;8.60;;
73104;SDS011;61296;50.526;30.792;2023-04-25T22:07:28;14.43;;;8.25;;
73104;SDS011;61296;50.526;30.792;2023-04-25T22:22:57;13.45;;;8.25;;
73104;SDS011;61296;50.526;30.792;2023-04-25T22:38:17;9.10;;;6.32;;
73104;SDS011;61296;50.526;30.792;2023-04-25T22:53:37;8.80;;;6.13;;
73104;SDS011;61296;50.526;30.792;2023-04-25T23:08:59;12.10;;;6.30;;
73104;SDS011;61296;50.526;30.792;2023-04-25T23:24:18;8.40;;;5.78;;
73104;SDS011;61296;50.526;30.792;2023-04-25T23:39:38;8.23;;;5.55;;
73104;SDS011;61296;50.526;30.792;2023-04-25T23:54:57;12.57;;;5.82;;
